createdAt,value
2022-10-13T00:00:50.696Z,20.17
2022-10-13T00:03:18.281Z,19.20
2022-10-13T00:05:47.649Z,21.57
2022-10-13T00:08:19.012Z,19.03
2022-10-13T00:10:48.450Z,18.97
2022-10-13T00:13:15.649Z,19.60
2022-10-13T00:15:44.633Z,19.37
2022-10-13T00:18:11.409Z,19.23
2022-10-13T00:20:43.374Z,19.53
2022-10-13T00:23:10.551Z,19.63
2022-10-13T00:25:42.306Z,18.20
2022-10-13T00:28:09.252Z,19.67
2022-10-13T00:30:37.290Z,19.07
2022-10-13T00:33:04.440Z,20.33
2022-10-13T00:35:31.218Z,19.70
2022-10-13T00:37:58.093Z,20.93
2022-10-13T00:40:24.949Z,21.47
2022-10-13T00:42:51.628Z,22.43
2022-10-13T00:45:25.786Z,20.73
2022-10-13T00:48:00.687Z,20.87
2022-10-13T00:50:37.157Z,20.80
2022-10-13T00:53:05.712Z,21.00
2022-10-13T00:55:35.635Z,19.67
2022-10-13T00:58:07.447Z,20.27
2022-10-13T01:00:35.158Z,20.93
2022-10-13T01:03:02.706Z,19.83
2022-10-13T01:05:30.904Z,20.07
2022-10-13T01:07:59.803Z,19.93
2022-10-13T01:11:04.121Z,18.73
2022-10-13T01:13:39.857Z,19.43
2022-10-13T01:16:19.954Z,20.00
2022-10-13T01:19:11.726Z,19.43
2022-10-13T01:22:04.710Z,18.87
2022-10-13T01:25:03.315Z,19.40
2022-10-13T01:28:05.388Z,20.10
2022-10-13T01:30:43.514Z,19.77
2022-10-13T01:33:16.998Z,21.20
2022-10-13T01:35:59.715Z,19.07
2022-10-13T01:38:32.386Z,19.27
2022-10-13T01:41:18.998Z,19.17
2022-10-13T01:43:54.586Z,20.37
2022-10-13T01:46:30.185Z,19.27
2022-10-13T01:49:00.958Z,19.90
2022-10-13T01:51:31.391Z,20.27
2022-10-13T01:53:58.076Z,19.97
2022-10-13T01:56:25.144Z,20.03
2022-10-13T01:58:53.741Z,21.47
2022-10-13T02:01:48.609Z,21.73
2022-10-13T02:04:21.145Z,20.37
2022-10-13T02:07:07.139Z,19.83
2022-10-13T02:09:54.607Z,20.13
2022-10-13T02:12:42.499Z,19.03
2022-10-13T02:15:14.067Z,19.20
2022-10-13T02:17:41.535Z,19.50
2022-10-13T02:20:09.438Z,18.40
2022-10-13T02:22:41.517Z,19.17
2022-10-13T02:25:08.963Z,19.67
2022-10-13T02:27:35.690Z,18.87
2022-10-13T02:30:02.462Z,21.60
2022-10-13T02:32:29.349Z,20.17
2022-10-13T02:34:56.073Z,20.73
2022-10-13T02:37:25.565Z,20.37
2022-10-13T02:39:52.911Z,20.30
2022-10-13T02:42:19.988Z,20.20
2022-10-13T02:44:46.977Z,20.57
2022-10-13T02:47:13.921Z,19.27
2022-10-13T02:49:40.640Z,20.27
2022-10-13T02:52:07.568Z,19.07
2022-10-13T02:54:34.367Z,20.70
2022-10-13T02:57:01.148Z,19.97
2022-10-13T02:59:27.962Z,19.77
2022-10-13T03:01:54.696Z,20.70
2022-10-13T03:04:21.706Z,19.80
2022-10-13T03:06:48.430Z,20.20
2022-10-13T03:09:15.130Z,19.70
2022-10-13T03:11:41.923Z,21.93
2022-10-13T03:14:08.633Z,20.30
2022-10-13T03:16:35.404Z,19.67
2022-10-13T03:19:02.166Z,19.60
2022-10-13T03:21:28.945Z,19.47
2022-10-13T03:23:55.699Z,21.63
2022-10-13T03:26:22.694Z,20.50
2022-10-13T03:28:50.556Z,20.27
2022-10-13T03:31:18.398Z,21.80
2022-10-13T03:33:45.975Z,20.90
2022-10-13T03:36:13.629Z,21.67
2022-10-13T03:38:40.564Z,21.80
2022-10-13T03:41:14.166Z,20.90
2022-10-13T03:43:42.692Z,22.63
2022-10-13T03:46:12.371Z,21.27
2022-10-13T03:48:39.466Z,21.60
2022-10-13T03:51:16.404Z,20.47
2022-10-13T03:53:43.426Z,21.97
2022-10-13T03:56:14.964Z,21.70
2022-10-13T03:58:42.782Z,21.17
2022-10-13T04:01:10.975Z,22.03
2022-10-13T04:03:37.752Z,21.03
2022-10-13T04:06:05.965Z,21.03
2022-10-13T04:08:34.097Z,21.17
2022-10-13T04:11:02.021Z,20.80
2022-10-13T04:13:29.122Z,22.10
2022-10-13T04:15:56.030Z,21.40
2022-10-13T04:18:22.761Z,22.40
2022-10-13T04:20:49.497Z,21.30
2022-10-13T04:23:16.292Z,21.83
2022-10-13T04:25:43.007Z,22.10
2022-10-13T04:28:11.980Z,21.67
2022-10-13T04:30:38.827Z,22.20
2022-10-13T04:33:05.947Z,22.50
2022-10-13T04:35:32.922Z,22.37
2022-10-13T04:37:59.984Z,21.20
2022-10-13T04:40:27.717Z,21.80
2022-10-13T04:42:54.517Z,23.00
2022-10-13T04:45:21.332Z,22.27
2022-10-13T04:47:48.023Z,23.13
2022-10-13T04:50:14.990Z,23.10
2022-10-13T04:52:41.803Z,22.57
2022-10-13T04:55:09.154Z,24.67
2022-10-13T04:57:36.654Z,21.03
2022-10-13T05:00:07.320Z,21.90
2022-10-13T05:02:38.027Z,21.47
2022-10-13T05:05:05.887Z,21.33
2022-10-13T05:07:32.812Z,21.47
2022-10-13T05:09:59.565Z,21.27
2022-10-13T05:12:26.577Z,21.87
2022-10-13T05:14:53.477Z,22.50
2022-10-13T05:17:20.226Z,21.60
2022-10-13T05:19:48.698Z,22.13
2022-10-13T05:22:15.539Z,22.57
2022-10-13T05:24:42.221Z,22.20
2022-10-13T05:27:11.425Z,23.27
2022-10-13T05:29:39.157Z,23.63
2022-10-13T05:32:06.847Z,24.07
2022-10-13T05:34:34.037Z,24.53
2022-10-13T05:37:01.171Z,24.07
2022-10-13T05:39:28.253Z,25.33
2022-10-13T05:41:55.515Z,25.03
2022-10-13T05:44:22.403Z,24.27
2022-10-13T05:46:49.802Z,25.13
2022-10-13T05:49:16.996Z,24.80
2022-10-13T05:51:47.561Z,26.20
2022-10-13T05:54:20.097Z,25.33
2022-10-13T05:56:54.652Z,25.80
2022-10-13T05:59:26.919Z,25.30
2022-10-13T06:01:54.545Z,26.27
2022-10-13T06:04:26.787Z,26.23
2022-10-13T06:06:53.518Z,26.20
2022-10-13T06:09:20.586Z,26.37
2022-10-13T06:11:47.305Z,26.63
2022-10-13T06:14:14.005Z,25.93
2022-10-13T06:16:41.530Z,26.73
2022-10-13T06:19:08.256Z,27.90
2022-10-13T06:21:35.770Z,26.57
2022-10-13T06:24:03.217Z,27.47
2022-10-13T06:26:30.114Z,27.60
2022-10-13T06:28:59.498Z,27.87
2022-10-13T06:31:27.067Z,28.47
2022-10-13T06:33:54.012Z,28.20
2022-10-13T06:36:20.835Z,26.70
2022-10-13T06:38:47.639Z,26.50
2022-10-13T06:41:14.412Z,26.60
2022-10-13T06:43:41.848Z,26.93
2022-10-13T06:46:09.074Z,25.70
2022-10-13T06:48:36.002Z,25.83
2022-10-13T06:51:08.827Z,25.73
2022-10-13T06:53:35.866Z,24.47
2022-10-13T06:56:05.158Z,25.07
2022-10-13T06:58:31.990Z,25.40
2022-10-13T07:00:58.709Z,25.77
2022-10-13T07:03:26.120Z,24.33
2022-10-13T07:05:53.328Z,23.40
2022-10-13T07:08:20.858Z,24.43
2022-10-13T07:10:50.845Z,25.53
2022-10-13T07:13:17.598Z,24.93
2022-10-13T07:15:44.314Z,23.10
2022-10-13T07:18:11.125Z,24.13
2022-10-13T07:20:38.231Z,24.30
2022-10-13T07:23:05.003Z,23.63
2022-10-13T07:25:31.896Z,22.40
2022-10-13T07:27:59.660Z,23.90
2022-10-13T07:30:26.937Z,23.53
2022-10-13T07:32:54.845Z,22.87
2022-10-13T07:35:24.786Z,23.70
2022-10-13T07:37:55.240Z,23.03
2022-10-13T07:40:21.957Z,21.87
2022-10-13T07:42:48.774Z,21.93
2022-10-13T07:45:15.691Z,21.40
2022-10-13T07:47:42.373Z,22.10
2022-10-13T07:50:10.518Z,20.33
2022-10-13T07:52:37.330Z,21.93
2022-10-13T07:55:04.473Z,21.40
2022-10-13T07:57:31.549Z,21.00
2022-10-13T07:59:58.358Z,19.07
2022-10-13T08:02:30.095Z,19.87
2022-10-13T08:04:56.919Z,18.47
2022-10-13T08:07:24.051Z,18.70
2022-10-13T08:09:50.748Z,16.97
2022-10-13T08:12:17.727Z,17.73
2022-10-13T08:14:44.970Z,17.03
2022-10-13T08:17:11.946Z,16.07
2022-10-13T08:19:38.749Z,16.90
2022-10-13T08:22:09.187Z,16.23
2022-10-13T08:24:36.614Z,15.67
2022-10-13T08:27:03.516Z,15.80
2022-10-13T08:29:30.349Z,15.53
2022-10-13T08:31:57.211Z,15.33
2022-10-13T08:34:24.741Z,14.97
2022-10-13T08:36:53.496Z,14.43
2022-10-13T08:39:21.974Z,13.87
2022-10-13T08:41:48.935Z,13.93
2022-10-13T08:45:15.729Z,13.00
2022-10-13T08:47:27.250Z,14.43
2022-10-13T08:50:00.297Z,14.10
2022-10-13T08:52:29.901Z,13.13
2022-10-13T08:54:58.458Z,13.83
2022-10-13T08:57:25.534Z,14.27
2022-10-13T08:59:53.762Z,16.50
2022-10-13T09:02:30.389Z,14.40
2022-10-13T09:05:01.793Z,14.17
2022-10-13T09:07:33.590Z,14.10
2022-10-13T09:10:00.389Z,12.70
2022-10-13T09:12:27.310Z,14.70
2022-10-13T09:15:13.022Z,14.83
2022-10-13T09:17:41.584Z,12.93
2022-10-13T09:20:27.689Z,12.53
2022-10-13T09:23:06.048Z,12.83
2022-10-13T09:25:44.141Z,12.93
2022-10-13T09:28:28.472Z,12.83
2022-10-13T09:31:03.173Z,12.00
2022-10-13T09:33:33.953Z,12.53
2022-10-13T09:36:00.593Z,12.10
2022-10-13T09:38:27.717Z,12.17
2022-10-13T09:41:06.099Z,12.17
2022-10-13T09:43:47.711Z,11.83
2022-10-13T09:46:36.254Z,11.57
2022-10-13T09:49:08.020Z,11.50
2022-10-13T09:51:44.884Z,11.97
2022-10-13T09:54:35.087Z,11.23
2022-10-13T09:57:07.779Z,11.87
2022-10-13T09:59:38.753Z,11.43
2022-10-13T10:02:22.478Z,10.97
2022-10-13T10:04:54.251Z,10.13
2022-10-13T10:07:29.008Z,10.43
2022-10-13T10:10:01.793Z,10.33
2022-10-13T10:12:32.029Z,11.30
2022-10-13T10:14:58.885Z,10.63
2022-10-13T10:17:49.029Z,10.43
2022-10-13T10:20:36.976Z,10.00
2022-10-13T10:23:11.444Z,10.90
2022-10-13T10:25:51.917Z,11.43
2022-10-13T10:28:24.636Z,10.18
2022-10-13T10:31:14.618Z,10.70
2022-10-13T10:34:13.611Z,10.00
2022-10-13T10:37:26.388Z,9.90
2022-10-13T10:40:07.728Z,9.93
2022-10-13T10:42:51.966Z,10.07
2022-10-13T10:45:24.960Z,9.70
2022-10-13T10:48:00.525Z,9.23
2022-10-13T10:50:30.854Z,9.82
2022-10-13T10:53:09.128Z,9.57
2022-10-13T10:55:42.623Z,8.52
2022-10-13T10:58:31.636Z,9.15
2022-10-13T11:01:17.042Z,8.23
2022-10-13T11:03:58.088Z,9.30
2022-10-13T11:06:33.846Z,8.65
2022-10-13T11:09:01.422Z,8.75
2022-10-13T11:11:36.451Z,9.38
2022-10-13T11:14:07.462Z,8.88
2022-10-13T11:16:58.694Z,8.60
2022-10-13T11:19:32.574Z,9.65
2022-10-13T11:21:59.243Z,9.25
2022-10-13T11:24:35.226Z,9.48
2022-10-13T11:27:07.627Z,9.77
2022-10-13T11:29:51.835Z,9.00
2022-10-13T11:32:50.715Z,9.63
2022-10-13T11:35:23.477Z,8.73
2022-10-13T11:38:13.987Z,8.23
2022-10-13T11:40:58.427Z,8.75
2022-10-13T11:43:34.290Z,8.85
2022-10-13T11:46:25.643Z,8.02
2022-10-13T11:49:01.349Z,9.05
2022-10-13T11:51:33.086Z,9.18
2022-10-13T11:54:16.541Z,9.07
2022-10-13T11:56:55.649Z,8.68
2022-10-13T11:59:33.119Z,8.45
2022-10-13T12:02:20.638Z,8.35
2022-10-13T12:05:06.932Z,7.68
2022-10-13T12:07:36.404Z,7.78
2022-10-13T12:10:07.445Z,7.53
2022-10-13T12:12:34.342Z,9.25
2022-10-13T12:15:04.357Z,9.02
2022-10-13T12:17:39.028Z,7.97
2022-10-13T12:20:24.733Z,8.00
2022-10-13T12:22:52.870Z,7.85
2022-10-13T12:25:22.900Z,7.85
2022-10-13T12:27:55.189Z,7.90
2022-10-13T12:30:28.180Z,9.02
2022-10-13T12:32:57.079Z,8.88
2022-10-13T12:35:25.758Z,8.20
2022-10-13T12:37:53.842Z,8.35
2022-10-13T12:40:21.983Z,7.97
2022-10-13T12:42:49.950Z,7.45
2022-10-13T12:45:19.739Z,8.20
2022-10-13T12:47:49.160Z,8.35
2022-10-13T12:50:28.125Z,7.25
2022-10-13T12:53:05.684Z,7.50
2022-10-13T12:55:33.611Z,7.78
2022-10-13T12:58:00.614Z,7.90
2022-10-13T13:00:30.794Z,8.00
2022-10-13T13:03:04.205Z,7.80
2022-10-13T13:05:36.885Z,7.50
2022-10-13T13:08:22.363Z,8.25
2022-10-13T13:11:00.110Z,7.78
2022-10-13T13:13:27.812Z,8.48
2022-10-13T13:16:12.504Z,7.10
2022-10-13T13:18:42.175Z,7.82
2022-10-13T13:21:12.637Z,7.53
2022-10-13T13:23:39.739Z,8.50
2022-10-13T13:26:18.396Z,7.93
2022-10-13T13:28:47.994Z,8.45
2022-10-13T13:31:20.471Z,9.25
2022-10-13T13:33:48.254Z,8.18
2022-10-13T13:36:22.121Z,8.40
2022-10-13T13:38:58.947Z,7.90
2022-10-13T13:41:28.396Z,9.40
2022-10-13T13:43:55.174Z,8.80
2022-10-13T13:46:24.586Z,8.15
2022-10-13T13:48:51.711Z,8.15
2022-10-13T13:51:18.986Z,9.52
2022-10-13T13:53:46.376Z,7.82
2022-10-13T13:56:18.372Z,8.85
2022-10-13T13:58:45.419Z,8.60
2022-10-13T14:01:14.145Z,8.50
2022-10-13T14:03:41.737Z,7.97
2022-10-13T14:06:09.000Z,7.63
2022-10-13T14:08:42.683Z,7.60
2022-10-13T14:11:10.232Z,7.65
2022-10-13T14:13:36.991Z,9.95
2022-10-13T14:16:04.049Z,10.00
2022-10-13T14:18:31.599Z,8.63
2022-10-13T14:20:58.372Z,8.15
2022-10-13T14:23:25.160Z,8.35
2022-10-13T14:25:51.893Z,7.88
2022-10-13T14:28:19.030Z,7.90
2022-10-13T14:30:45.836Z,8.00
2022-10-13T14:33:12.540Z,8.85
2022-10-13T14:35:39.333Z,8.57
2022-10-13T14:38:06.055Z,8.60
2022-10-13T14:40:32.741Z,8.52
2022-10-13T14:42:59.724Z,7.38
2022-10-13T14:45:26.415Z,7.38
2022-10-13T14:47:53.692Z,8.05
2022-10-13T14:50:20.709Z,7.75
2022-10-13T14:52:47.404Z,8.38
2022-10-13T14:55:14.625Z,8.25
2022-10-13T14:57:41.341Z,8.30
2022-10-13T15:00:10.489Z,7.55
2022-10-13T15:02:37.189Z,8.23
2022-10-13T15:05:04.263Z,8.18
2022-10-13T15:07:31.408Z,8.18
2022-10-13T15:10:05.615Z,9.57
2022-10-13T15:12:33.201Z,10.00
2022-10-13T15:14:59.985Z,19.40
2022-10-13T15:17:26.763Z,21.02
2022-10-13T15:19:53.552Z,20.23
2022-10-13T15:22:20.478Z,29.77
2022-10-13T15:24:47.706Z,29.38
2022-10-13T15:27:14.422Z,25.98
2022-10-13T15:29:41.109Z,22.65
2022-10-13T15:32:12.791Z,19.52
2022-10-13T15:34:40.132Z,18.10
2022-10-13T15:37:07.482Z,17.45
2022-10-13T15:39:34.569Z,17.27
2022-10-13T15:42:01.336Z,16.98
2022-10-13T15:44:28.107Z,16.90
2022-10-13T15:47:07.429Z,14.98
2022-10-13T15:49:39.527Z,14.93
2022-10-13T15:52:06.398Z,14.23
2022-10-13T15:54:33.126Z,16.35
2022-10-13T15:57:00.366Z,15.32
2022-10-13T15:59:27.174Z,15.90
2022-10-13T16:01:54.024Z,18.77
2022-10-13T16:04:20.737Z,19.52
2022-10-13T16:06:47.536Z,22.42
2022-10-13T16:09:14.423Z,23.88
2022-10-13T16:11:41.822Z,23.25
2022-10-13T16:14:17.733Z,21.60
2022-10-13T16:16:44.895Z,19.20
2022-10-13T16:19:11.629Z,15.57
2022-10-13T16:21:38.399Z,14.07
2022-10-13T16:24:05.463Z,15.07
2022-10-13T16:26:32.427Z,14.27
2022-10-13T16:28:59.220Z,12.70
2022-10-13T16:31:26.106Z,13.77
2022-10-13T16:33:52.897Z,14.23
2022-10-13T16:36:20.193Z,18.43
2022-10-13T16:38:47.913Z,22.83
2022-10-13T16:41:17.288Z,39.20
2022-10-13T16:43:45.367Z,40.73
2022-10-13T16:46:14.302Z,38.47
2022-10-13T16:48:42.081Z,35.90
2022-10-13T16:51:12.837Z,30.20
2022-10-13T16:53:43.084Z,31.97
2022-10-13T16:56:10.409Z,39.10
2022-10-13T16:58:37.163Z,40.43
2022-10-13T17:01:15.022Z,47.97
2022-10-13T17:03:44.773Z,44.00
2022-10-13T17:06:14.045Z,36.77
2022-10-13T17:08:42.247Z,34.53
2022-10-13T17:11:10.804Z,33.60
2022-10-13T17:13:37.619Z,39.23
2022-10-13T17:16:04.875Z,37.93
2022-10-13T17:18:31.876Z,37.47
2022-10-13T17:21:04.348Z,32.07
2022-10-13T17:23:32.182Z,30.03
2022-10-13T17:26:04.560Z,29.30
2022-10-13T17:28:31.674Z,28.67
2022-10-13T17:31:04.715Z,33.80
2022-10-13T17:33:34.228Z,33.93
2022-10-13T17:36:03.070Z,32.53
2022-10-13T17:38:29.869Z,31.77
2022-10-13T17:41:01.530Z,28.30
2022-10-13T17:43:29.156Z,25.93
2022-10-13T17:46:07.456Z,26.60
2022-10-13T17:48:43.347Z,25.03
2022-10-13T17:51:12.546Z,25.77
2022-10-13T17:53:41.893Z,25.83
2022-10-13T17:56:15.307Z,25.60
2022-10-13T17:58:43.050Z,23.50
2022-10-13T18:01:16.077Z,28.37
2022-10-13T18:03:51.242Z,34.53
2022-10-13T18:06:19.822Z,44.97
2022-10-13T18:08:46.656Z,50.03
2022-10-13T18:11:16.183Z,48.17
2022-10-13T18:13:44.592Z,46.87
2022-10-13T18:16:17.550Z,49.70
2022-10-13T18:18:45.404Z,46.17
2022-10-13T18:21:15.202Z,39.33
2022-10-13T18:23:42.663Z,30.83
2022-10-13T18:26:12.370Z,28.63
2022-10-13T18:28:40.621Z,29.10
2022-10-13T18:31:10.216Z,30.37
2022-10-13T18:33:37.165Z,30.10
2022-10-13T18:36:44.050Z,31.00
2022-10-13T18:39:17.102Z,39.83
2022-10-13T18:41:44.040Z,42.07
2022-10-13T18:44:13.444Z,36.90
2022-10-13T18:46:42.835Z,30.33
2022-10-13T18:49:13.800Z,28.83
2022-10-13T18:51:41.358Z,26.67
2022-10-13T18:54:08.579Z,26.30
2022-10-13T18:56:38.876Z,23.87
2022-10-13T18:59:08.059Z,23.57
2022-10-13T19:01:36.491Z,22.43
2022-10-13T19:04:03.679Z,23.10
2022-10-13T19:06:32.305Z,22.40
2022-10-13T19:09:08.477Z,22.27
2022-10-13T19:11:35.687Z,21.23
2022-10-13T19:14:03.317Z,23.80
2022-10-13T19:16:31.596Z,21.33
2022-10-13T19:18:58.576Z,19.70
2022-10-13T19:21:25.397Z,18.40
2022-10-13T19:23:58.002Z,18.20
2022-10-13T19:26:28.413Z,17.87
2022-10-13T19:28:57.851Z,18.10
2022-10-13T19:31:27.060Z,18.93
2022-10-13T19:33:54.452Z,18.13
2022-10-13T19:36:37.449Z,19.20
2022-10-13T19:39:10.777Z,20.37
2022-10-13T19:41:38.403Z,20.40
2022-10-13T19:44:05.266Z,20.70
2022-10-13T19:46:33.223Z,19.50
2022-10-13T19:49:00.596Z,19.83
2022-10-13T19:51:27.412Z,18.73
2022-10-13T19:53:54.155Z,18.93
2022-10-13T19:56:27.028Z,20.60
2022-10-13T19:58:54.461Z,20.47
2022-10-13T20:01:21.627Z,21.43
2022-10-13T20:03:49.164Z,19.47
2022-10-13T20:06:17.212Z,19.03
2022-10-13T20:08:45.489Z,18.20
2022-10-13T20:11:23.334Z,17.40
2022-10-13T20:13:50.679Z,17.70
2022-10-13T20:16:20.430Z,17.60
2022-10-13T20:18:52.277Z,17.13
2022-10-13T20:21:19.240Z,17.73
2022-10-13T20:23:45.945Z,17.53
2022-10-13T20:26:13.994Z,18.77
2022-10-13T20:28:43.367Z,19.10
2022-10-13T20:31:12.900Z,21.40
2022-10-13T20:33:40.290Z,21.13
2022-10-13T20:36:10.683Z,23.77
2022-10-13T20:38:37.626Z,24.90
2022-10-13T20:41:18.755Z,21.17
2022-10-13T20:43:46.794Z,20.97
2022-10-13T20:46:14.737Z,20.20
2022-10-13T20:49:09.473Z,22.60
2022-10-13T20:51:29.404Z,23.67
2022-10-13T20:53:56.094Z,22.90
2022-10-13T20:56:25.384Z,21.43
2022-10-13T20:58:53.126Z,23.83
2022-10-13T21:01:21.441Z,22.63
2022-10-13T21:03:52.959Z,24.10
2022-10-13T21:06:19.708Z,24.77
2022-10-13T21:08:47.156Z,25.50
2022-10-13T21:11:16.154Z,27.17
2022-10-13T21:13:44.466Z,26.80
2022-10-13T21:16:14.627Z,28.13
2022-10-13T21:18:47.969Z,29.17
2022-10-13T21:21:16.997Z,31.00
2022-10-13T21:23:43.819Z,31.67
2022-10-13T21:26:11.700Z,35.80
2022-10-13T21:28:39.416Z,37.17
2022-10-13T21:31:08.299Z,37.27
2022-10-13T21:33:36.790Z,34.40
2022-10-13T21:36:14.511Z,37.97
2022-10-13T21:38:42.338Z,38.70
2022-10-13T21:41:11.218Z,41.33
2022-10-13T21:43:38.207Z,39.63
2022-10-13T21:46:26.612Z,39.53
2022-10-13T21:48:59.227Z,39.27
2022-10-13T21:51:36.347Z,36.30
2022-10-13T21:54:06.007Z,35.10
2022-10-13T21:56:33.972Z,33.73
2022-10-13T21:59:01.670Z,31.83
2022-10-13T22:01:28.754Z,32.40
2022-10-13T22:03:58.049Z,31.87
2022-10-13T22:06:25.383Z,31.93
2022-10-13T22:08:53.870Z,31.70
2022-10-13T22:11:23.297Z,30.03
2022-10-13T22:13:50.426Z,28.90
2022-10-13T22:16:28.579Z,29.67
2022-10-13T22:18:56.781Z,35.90
2022-10-13T22:21:27.738Z,32.97
2022-10-13T22:24:02.444Z,33.77
2022-10-13T22:26:32.579Z,34.40
2022-10-13T22:29:01.707Z,32.60
2022-10-13T22:31:28.927Z,35.57
2022-10-13T22:33:55.631Z,36.47
2022-10-13T22:36:24.209Z,35.57
2022-10-13T22:38:53.248Z,35.63
2022-10-13T22:41:20.775Z,35.23
2022-10-13T22:43:52.801Z,35.10
2022-10-13T22:46:21.461Z,32.47
2022-10-13T22:48:48.857Z,32.50
2022-10-13T22:51:21.502Z,31.30
2022-10-13T22:53:49.249Z,30.37
2022-10-13T22:56:19.953Z,30.87
2022-10-13T22:59:10.811Z,28.50
2022-10-13T23:01:37.607Z,29.07
2022-10-13T23:04:05.905Z,29.47
2022-10-13T23:06:34.538Z,29.50
2022-10-13T23:09:04.267Z,28.57
2022-10-13T23:11:31.097Z,26.17
2022-10-13T23:13:58.088Z,27.27
2022-10-13T23:16:25.941Z,28.07
2022-10-13T23:18:53.364Z,27.10
2022-10-13T23:21:22.039Z,27.20
2022-10-13T23:23:53.669Z,26.70
2022-10-13T23:26:20.717Z,27.37
2022-10-13T23:28:47.735Z,26.83
2022-10-13T23:31:16.501Z,25.50
2022-10-13T23:33:43.967Z,25.93
2022-10-13T23:36:16.131Z,25.27
2022-10-13T23:38:43.211Z,26.90
2022-10-13T23:41:12.512Z,24.97
2022-10-13T23:43:40.085Z,28.00
2022-10-13T23:46:07.959Z,27.17
2022-10-13T23:48:34.668Z,28.10
2022-10-13T23:51:07.185Z,27.80
2022-10-13T23:53:35.653Z,25.77
2022-10-13T23:56:06.564Z,29.53
2022-10-13T23:58:36.182Z,29.63
